sensor_id;sensor_type;location;lat;lon;timestamp;temperature;humidity
39023;DHT22;25908;51.984;5.928;2023-02-05T00:02:12;9.00;99.90
39023;DHT22;25908;51.984;5.928;2023-02-05T00:04:38;9.00;99.90
39023;DHT22;25908;51.984;5.928;2023-02-05T00:07:04;9.00;99.90
39023;DHT22;25908;51.984;5.928;2023-02-05T00:09:30;9.00;99.90
39023;DHT22;25908;51.984;5.928;2023-02-05T00:11:57;9.00;99.90
39023;DHT22;25908;51.984;5.928;2023-02-05T00:14:23;9.00;99.90
39023;DHT22;25908;51.984;5.928;2023-02-05T00:16:50;8.90;99.90
39023;DHT22;25908;51.984;5.928;2023-02-05T00:19:16;8.90;99.90
39023;DHT22;25908;51.984;5.928;2023-02-05T00:21:41;8.90;99.90
39023;DHT22;25908;51.984;5.928;2023-02-05T00:24:09;8.90;99.90
39023;DHT22;25908;51.984;5.928;2023-02-05T00:26:34;8.90;99.90
39023;DHT22;25908;51.984;5.928;2023-02-05T00:29:00;8.90;99.90
39023;DHT22;25908;51.984;5.928;2023-02-05T00:31:26;8.90;99.90
39023;DHT22;25908;51.984;5.928;2023-02-05T00:33:51;8.90;99.90
39023;DHT22;25908;51.984;5.928;2023-02-05T00:36:19;8.90;99.90
39023;DHT22;25908;51.984;5.928;2023-02-05T00:38:45;8.90;99.90
39023;DHT22;25908;51.984;5.928;2023-02-05T00:41:12;8.90;99.90
39023;DHT22;25908;51.984;5.928;2023-02-05T00:43:38;8.90;99.90
39023;DHT22;25908;51.984;5.928;2023-02-05T00:46:04;8.90;99.90
39023;DHT22;25908;51.984;5.928;2023-02-05T00:48:30;9.00;99.90
39023;DHT22;25908;51.984;5.928;2023-02-05T00:50:55;8.90;99.90
39023;DHT22;25908;51.984;5.928;2023-02-05T00:53:22;9.00;99.90
39023;DHT22;25908;51.984;5.928;2023-02-05T00:55:47;9.00;99.90
39023;DHT22;25908;51.984;5.928;2023-02-05T00:58:13;9.00;99.90
39023;DHT22;25908;51.984;5.928;2023-02-05T01:00:40;9.10;99.90
39023;DHT22;25908;51.984;5.928;2023-02-05T01:03:05;9.10;99.90
39023;DHT22;25908;51.984;5.928;2023-02-05T01:05:33;9.00;99.90
39023;DHT22;25908;51.984;5.928;2023-02-05T01:07:59;9.10;99.90
39023;DHT22;25908;51.984;5.928;2023-02-05T01:10:24;9.10;99.90
39023;DHT22;25908;51.984;5.928;2023-02-05T01:12:50;9.10;99.90
39023;DHT22;25908;51.984;5.928;2023-02-05T01:15:16;9.10;99.90
39023;DHT22;25908;51.984;5.928;2023-02-05T01:17:42;9.10;99.90
39023;DHT22;25908;51.984;5.928;2023-02-05T01:20:09;9.00;99.90
39023;DHT22;25908;51.984;5.928;2023-02-05T01:22:35;9.00;99.90
39023;DHT22;25908;51.984;5.928;2023-02-05T01:25:00;9.10;99.90
39023;DHT22;25908;51.984;5.928;2023-02-05T01:27:26;9.10;99.90
39023;DHT22;25908;51.984;5.928;2023-02-05T01:29:52;9.10;99.90
39023;DHT22;25908;51.984;5.928;2023-02-05T01:32:17;9.10;99.90
39023;DHT22;25908;51.984;5.928;2023-02-05T01:34:44;9.10;99.90
39023;DHT22;25908;51.984;5.928;2023-02-05T01:37:10;9.10;99.90
39023;DHT22;25908;51.984;5.928;2023-02-05T01:39:36;9.10;99.90
39023;DHT22;25908;51.984;5.928;2023-02-05T01:42:23;9.10;99.90
39023;DHT22;25908;51.984;5.928;2023-02-05T01:47:51;9.10;99.90
39023;DHT22;25908;51.984;5.928;2023-02-05T01:50:24;9.10;99.90
39023;DHT22;25908;51.984;5.928;2023-02-05T01:52:51;9.10;99.90
39023;DHT22;25908;51.984;5.928;2023-02-05T01:55:18;9.10;99.90
39023;DHT22;25908;51.984;5.928;2023-02-05T01:57:45;9.10;99.90
39023;DHT22;25908;51.984;5.928;2023-02-05T02:00:11;9.10;99.90
39023;DHT22;25908;51.984;5.928;2023-02-05T02:02:37;9.10;99.90
39023;DHT22;25908;51.984;5.928;2023-02-05T02:05:12;9.10;99.90
39023;DHT22;25908;51.984;5.928;2023-02-05T02:07:38;9.10;99.90
39023;DHT22;25908;51.984;5.928;2023-02-05T02:10:04;9.10;99.90
39023;DHT22;25908;51.984;5.928;2023-02-05T02:12:33;9.10;99.90
39023;DHT22;25908;51.984;5.928;2023-02-05T02:15:05;9.10;99.90
39023;DHT22;25908;51.984;5.928;2023-02-05T02:17:33;9.10;99.90
39023;DHT22;25908;51.984;5.928;2023-02-05T02:20:11;9.10;99.90
39023;DHT22;25908;51.984;5.928;2023-02-05T02:30:58;9.00;99.90
39023;DHT22;25908;51.984;5.928;2023-02-05T02:33:33;9.00;99.90
39023;DHT22;25908;51.984;5.928;2023-02-05T02:36:22;9.00;99.90
39023;DHT22;25908;51.984;5.928;2023-02-05T02:39:06;8.90;99.90
39023;DHT22;25908;51.984;5.928;2023-02-05T02:44:39;9.00;99.90
39023;DHT22;25908;51.984;5.928;2023-02-05T02:47:12;9.00;99.90
39023;DHT22;25908;51.984;5.928;2023-02-05T02:49:44;9.00;99.90
39023;DHT22;25908;51.984;5.928;2023-02-05T02:52:13;9.00;99.90
39023;DHT22;25908;51.984;5.928;2023-02-05T02:54:44;9.00;99.90
39023;DHT22;25908;51.984;5.928;2023-02-05T02:57:12;9.10;99.90
39023;DHT22;25908;51.984;5.928;2023-02-05T02:59:39;9.10;99.90
39023;DHT22;25908;51.984;5.928;2023-02-05T03:02:09;9.10;99.90
39023;DHT22;25908;51.984;5.928;2023-02-05T03:04:38;9.10;99.90
39023;DHT22;25908;51.984;5.928;2023-02-05T03:09:49;9.10;99.90
39023;DHT22;25908;51.984;5.928;2023-02-05T03:12:15;9.10;99.90
39023;DHT22;25908;51.984;5.928;2023-02-05T03:14:41;9.10;99.90
39023;DHT22;25908;51.984;5.928;2023-02-05T03:17:06;9.10;99.90
39023;DHT22;25908;51.984;5.928;2023-02-05T03:19:32;9.10;99.90
39023;DHT22;25908;51.984;5.928;2023-02-05T03:22:05;9.10;99.90
39023;DHT22;25908;51.984;5.928;2023-02-05T03:24:31;9.20;99.90
39023;DHT22;25908;51.984;5.928;2023-02-05T03:26:57;9.10;99.90
39023;DHT22;25908;51.984;5.928;2023-02-05T03:29:28;9.20;99.90
39023;DHT22;25908;51.984;5.928;2023-02-05T03:35:17;9.20;99.90
39023;DHT22;25908;51.984;5.928;2023-02-05T03:38:27;9.10;99.90
39023;DHT22;25908;51.984;5.928;2023-02-05T03:43:31;9.20;99.90
39023;DHT22;25908;51.984;5.928;2023-02-05T03:46:20;9.10;99.90
39023;DHT22;25908;51.984;5.928;2023-02-05T03:51:55;9.20;99.90
39023;DHT22;25908;51.984;5.928;2023-02-05T03:54:39;9.10;99.90
39023;DHT22;25908;51.984;5.928;2023-02-05T03:57:14;9.20;99.90
39023;DHT22;25908;51.984;5.928;2023-02-05T03:59:42;9.20;99.90
39023;DHT22;25908;51.984;5.928;2023-02-05T04:02:08;9.20;99.90
39023;DHT22;25908;51.984;5.928;2023-02-05T04:04:34;9.20;99.90
39023;DHT22;25908;51.984;5.928;2023-02-05T04:07:00;9.20;99.90
39023;DHT22;25908;51.984;5.928;2023-02-05T04:09:26;9.20;99.90
39023;DHT22;25908;51.984;5.928;2023-02-05T04:11:52;9.20;99.90
39023;DHT22;25908;51.984;5.928;2023-02-05T04:14:17;9.20;99.90
39023;DHT22;25908;51.984;5.928;2023-02-05T04:16:43;9.10;99.90
39023;DHT22;25908;51.984;5.928;2023-02-05T04:19:08;9.10;99.90
39023;DHT22;25908;51.984;5.928;2023-02-05T04:21:34;9.20;99.90
39023;DHT22;25908;51.984;5.928;2023-02-05T04:23:59;9.10;99.90
39023;DHT22;25908;51.984;5.928;2023-02-05T04:26:25;9.10;99.90
39023;DHT22;25908;51.984;5.928;2023-02-05T04:28:50;9.20;99.90
39023;DHT22;25908;51.984;5.928;2023-02-05T04:31:16;9.20;99.90
39023;DHT22;25908;51.984;5.928;2023-02-05T04:33:42;9.20;99.90
39023;DHT22;25908;51.984;5.928;2023-02-05T04:36:08;9.20;99.90
39023;DHT22;25908;51.984;5.928;2023-02-05T04:38:34;9.20;99.90
39023;DHT22;25908;51.984;5.928;2023-02-05T04:40:59;9.20;99.90
39023;DHT22;25908;51.984;5.928;2023-02-05T04:43:25;9.10;99.90
39023;DHT22;25908;51.984;5.928;2023-02-05T04:45:50;9.10;99.90
39023;DHT22;25908;51.984;5.928;2023-02-05T04:48:16;9.20;99.90
39023;DHT22;25908;51.984;5.928;2023-02-05T04:50:42;9.20;99.90
39023;DHT22;25908;51.984;5.928;2023-02-05T04:53:08;9.20;99.90
39023;DHT22;25908;51.984;5.928;2023-02-05T04:55:33;9.20;99.90
39023;DHT22;25908;51.984;5.928;2023-02-05T04:57:59;9.10;99.90
39023;DHT22;25908;51.984;5.928;2023-02-05T05:00:25;9.10;99.90
39023;DHT22;25908;51.984;5.928;2023-02-05T05:02:51;9.20;99.90
39023;DHT22;25908;51.984;5.928;2023-02-05T05:05:17;9.10;99.90
39023;DHT22;25908;51.984;5.928;2023-02-05T05:07:43;9.10;99.90
39023;DHT22;25908;51.984;5.928;2023-02-05T05:10:10;9.10;99.90
39023;DHT22;25908;51.984;5.928;2023-02-05T05:12:36;9.10;99.90
39023;DHT22;25908;51.984;5.928;2023-02-05T05:15:03;9.10;99.90
39023;DHT22;25908;51.984;5.928;2023-02-05T05:17:29;9.10;99.90
39023;DHT22;25908;51.984;5.928;2023-02-05T05:19:55;9.10;99.90
39023;DHT22;25908;51.984;5.928;2023-02-05T05:22:20;9.10;99.90
39023;DHT22;25908;51.984;5.928;2023-02-05T05:24:46;9.10;99.90
39023;DHT22;25908;51.984;5.928;2023-02-05T05:27:11;9.10;99.90
39023;DHT22;25908;51.984;5.928;2023-02-05T05:29:37;9.10;99.90
39023;DHT22;25908;51.984;5.928;2023-02-05T05:32:03;9.10;99.90
39023;DHT22;25908;51.984;5.928;2023-02-05T05:34:28;9.10;99.90
39023;DHT22;25908;51.984;5.928;2023-02-05T05:36:54;9.10;99.90
39023;DHT22;25908;51.984;5.928;2023-02-05T05:39:20;9.10;99.90
39023;DHT22;25908;51.984;5.928;2023-02-05T05:42:04;9.00;99.90
39023;DHT22;25908;51.984;5.928;2023-02-05T05:44:48;8.90;99.90
39023;DHT22;25908;51.984;5.928;2023-02-05T05:47:17;8.90;99.90
39023;DHT22;25908;51.984;5.928;2023-02-05T05:49:42;8.90;99.90
39023;DHT22;25908;51.984;5.928;2023-02-05T05:52:08;8.90;99.90
39023;DHT22;25908;51.984;5.928;2023-02-05T05:54:33;8.90;99.90
39023;DHT22;25908;51.984;5.928;2023-02-05T05:56:59;8.80;99.90
39023;DHT22;25908;51.984;5.928;2023-02-05T05:59:24;8.80;99.90
39023;DHT22;25908;51.984;5.928;2023-02-05T06:01:50;8.70;99.90
39023;DHT22;25908;51.984;5.928;2023-02-05T06:04:16;8.70;99.90
39023;DHT22;25908;51.984;5.928;2023-02-05T06:06:41;8.80;99.90
39023;DHT22;25908;51.984;5.928;2023-02-05T06:09:07;8.80;99.90
39023;DHT22;25908;51.984;5.928;2023-02-05T06:11:32;8.70;99.90
39023;DHT22;25908;51.984;5.928;2023-02-05T06:13:58;8.80;99.90
39023;DHT22;25908;51.984;5.928;2023-02-05T06:16:24;8.80;99.90
39023;DHT22;25908;51.984;5.928;2023-02-05T06:18:49;8.80;99.90
39023;DHT22;25908;51.984;5.928;2023-02-05T06:21:15;8.70;99.90
39023;DHT22;25908;51.984;5.928;2023-02-05T06:23:40;8.70;99.90
39023;DHT22;25908;51.984;5.928;2023-02-05T06:26:06;8.80;99.90
39023;DHT22;25908;51.984;5.928;2023-02-05T06:28:32;8.70;99.90
39023;DHT22;25908;51.984;5.928;2023-02-05T06:30:57;8.60;99.90
39023;DHT22;25908;51.984;5.928;2023-02-05T06:33:23;8.60;99.90
39023;DHT22;25908;51.984;5.928;2023-02-05T06:35:48;8.50;99.90
39023;DHT22;25908;51.984;5.928;2023-02-05T06:38:14;8.50;99.90
39023;DHT22;25908;51.984;5.928;2023-02-05T06:40:39;8.40;99.90
39023;DHT22;25908;51.984;5.928;2023-02-05T06:43:05;8.40;99.90
39023;DHT22;25908;51.984;5.928;2023-02-05T06:45:30;8.40;99.90
39023;DHT22;25908;51.984;5.928;2023-02-05T06:47:56;8.30;99.90
39023;DHT22;25908;51.984;5.928;2023-02-05T06:50:23;8.20;99.90
39023;DHT22;25908;51.984;5.928;2023-02-05T06:52:48;8.20;99.90
39023;DHT22;25908;51.984;5.928;2023-02-05T06:55:15;8.20;99.90
39023;DHT22;25908;51.984;5.928;2023-02-05T06:57:41;8.10;99.90
39023;DHT22;25908;51.984;5.928;2023-02-05T07:00:07;8.00;99.90
39023;DHT22;25908;51.984;5.928;2023-02-05T07:02:33;8.00;99.90
39023;DHT22;25908;51.984;5.928;2023-02-05T07:04:59;8.00;99.90
39023;DHT22;25908;51.984;5.928;2023-02-05T07:07:24;8.00;99.90
39023;DHT22;25908;51.984;5.928;2023-02-05T07:09:50;7.90;99.90
39023;DHT22;25908;51.984;5.928;2023-02-05T07:12:16;7.90;99.90
39023;DHT22;25908;51.984;5.928;2023-02-05T07:14:41;7.90;99.90
39023;DHT22;25908;51.984;5.928;2023-02-05T07:17:08;7.90;99.90
39023;DHT22;25908;51.984;5.928;2023-02-05T07:19:34;7.90;99.90
39023;DHT22;25908;51.984;5.928;2023-02-05T07:22:00;7.80;99.90
39023;DHT22;25908;51.984;5.928;2023-02-05T07:24:26;7.80;99.90
39023;DHT22;25908;51.984;5.928;2023-02-05T07:26:51;7.70;99.90
39023;DHT22;25908;51.984;5.928;2023-02-05T07:29:17;7.70;99.90
39023;DHT22;25908;51.984;5.928;2023-02-05T07:31:43;7.70;99.90
39023;DHT22;25908;51.984;5.928;2023-02-05T07:34:08;7.70;99.90
39023;DHT22;25908;51.984;5.928;2023-02-05T07:36:34;7.70;99.90
39023;DHT22;25908;51.984;5.928;2023-02-05T07:38:59;7.70;99.90
39023;DHT22;25908;51.984;5.928;2023-02-05T07:41:25;7.70;99.90
39023;DHT22;25908;51.984;5.928;2023-02-05T07:43:51;7.80;99.90
39023;DHT22;25908;51.984;5.928;2023-02-05T07:46:18;7.80;99.90
39023;DHT22;25908;51.984;5.928;2023-02-05T07:48:44;7.70;99.90
39023;DHT22;25908;51.984;5.928;2023-02-05T07:51:17;7.70;99.90
39023;DHT22;25908;51.984;5.928;2023-02-05T07:53:44;7.80;99.90
39023;DHT22;25908;51.984;5.928;2023-02-05T07:56:09;7.90;99.90
39023;DHT22;25908;51.984;5.928;2023-02-05T07:58:35;7.90;99.90
39023;DHT22;25908;51.984;5.928;2023-02-05T08:01:02;7.90;99.90
39023;DHT22;25908;51.984;5.928;2023-02-05T08:03:28;8.00;99.90
39023;DHT22;25908;51.984;5.928;2023-02-05T08:05:53;8.00;99.90
39023;DHT22;25908;51.984;5.928;2023-02-05T08:08:19;8.00;99.90
39023;DHT22;25908;51.984;5.928;2023-02-05T08:10:45;8.10;99.90
39023;DHT22;25908;51.984;5.928;2023-02-05T08:13:10;8.00;99.90
39023;DHT22;25908;51.984;5.928;2023-02-05T08:15:39;8.00;99.90
39023;DHT22;25908;51.984;5.928;2023-02-05T08:18:04;8.10;99.90
39023;DHT22;25908;51.984;5.928;2023-02-05T08:20:30;8.10;99.90
39023;DHT22;25908;51.984;5.928;2023-02-05T08:22:56;8.10;99.90
39023;DHT22;25908;51.984;5.928;2023-02-05T08:25:21;8.00;99.90
39023;DHT22;25908;51.984;5.928;2023-02-05T08:27:47;8.00;99.90
39023;DHT22;25908;51.984;5.928;2023-02-05T08:30:15;8.00;99.90
39023;DHT22;25908;51.984;5.928;2023-02-05T08:32:40;8.10;99.90
39023;DHT22;25908;51.984;5.928;2023-02-05T08:35:06;8.10;99.90
39023;DHT22;25908;51.984;5.928;2023-02-05T08:37:32;8.10;99.90
39023;DHT22;25908;51.984;5.928;2023-02-05T08:39:57;8.10;99.90
39023;DHT22;25908;51.984;5.928;2023-02-05T08:42:23;8.10;99.90
39023;DHT22;25908;51.984;5.928;2023-02-05T08:44:49;8.10;99.90
39023;DHT22;25908;51.984;5.928;2023-02-05T08:47:18;8.10;99.90
39023;DHT22;25908;51.984;5.928;2023-02-05T08:49:44;8.10;99.90
39023;DHT22;25908;51.984;5.928;2023-02-05T08:52:09;8.20;99.90
39023;DHT22;25908;51.984;5.928;2023-02-05T08:54:35;8.20;99.90
39023;DHT22;25908;51.984;5.928;2023-02-05T08:57:00;8.20;99.90
39023;DHT22;25908;51.984;5.928;2023-02-05T08:59:26;8.30;99.90
39023;DHT22;25908;51.984;5.928;2023-02-05T09:01:52;8.30;99.90
39023;DHT22;25908;51.984;5.928;2023-02-05T09:04:19;8.40;99.90
39023;DHT22;25908;51.984;5.928;2023-02-05T09:06:45;8.40;99.90
39023;DHT22;25908;51.984;5.928;2023-02-05T09:09:12;8.40;99.90
39023;DHT22;25908;51.984;5.928;2023-02-05T09:11:38;8.40;99.90
39023;DHT22;25908;51.984;5.928;2023-02-05T09:14:04;8.30;99.90
39023;DHT22;25908;51.984;5.928;2023-02-05T09:16:30;8.30;99.90
39023;DHT22;25908;51.984;5.928;2023-02-05T09:18:56;8.40;99.90
39023;DHT22;25908;51.984;5.928;2023-02-05T09:21:23;8.40;99.90
39023;DHT22;25908;51.984;5.928;2023-02-05T09:23:50;8.50;99.90
39023;DHT22;25908;51.984;5.928;2023-02-05T09:26:15;8.60;99.90
39023;DHT22;25908;51.984;5.928;2023-02-05T09:28:41;8.70;99.90
39023;DHT22;25908;51.984;5.928;2023-02-05T09:31:09;8.70;99.90
39023;DHT22;25908;51.984;5.928;2023-02-05T09:33:36;8.70;99.90
39023;DHT22;25908;51.984;5.928;2023-02-05T09:36:06;8.70;99.90
39023;DHT22;25908;51.984;5.928;2023-02-05T09:38:32;8.70;99.90
39023;DHT22;25908;51.984;5.928;2023-02-05T09:41:06;8.70;99.90
39023;DHT22;25908;51.984;5.928;2023-02-05T09:49:31;8.70;99.90
39023;DHT22;25908;51.984;5.928;2023-02-05T09:52:02;8.70;99.90
39023;DHT22;25908;51.984;5.928;2023-02-05T09:54:39;8.70;99.90
39023;DHT22;25908;51.984;5.928;2023-02-05T09:57:11;8.60;99.90
39023;DHT22;25908;51.984;5.928;2023-02-05T09:59:43;8.60;99.90
39023;DHT22;25908;51.984;5.928;2023-02-05T10:02:54;8.70;99.90
39023;DHT22;25908;51.984;5.928;2023-02-05T10:04:58;8.60;99.90
39023;DHT22;25908;51.984;5.928;2023-02-05T10:10:06;8.70;99.90
39023;DHT22;25908;51.984;5.928;2023-02-05T10:15:26;8.70;99.90
39023;DHT22;25908;51.984;5.928;2023-02-05T10:20:59;8.70;99.90
39023;DHT22;25908;51.984;5.928;2023-02-05T10:23:41;8.70;99.90
39023;DHT22;25908;51.984;5.928;2023-02-05T10:26:10;8.70;99.90
39023;DHT22;25908;51.984;5.928;2023-02-05T10:34:10;9.00;99.90
39023;DHT22;25908;51.984;5.928;2023-02-05T10:36:39;9.00;99.90
39023;DHT22;25908;51.984;5.928;2023-02-05T10:39:13;9.10;99.90
39023;DHT22;25908;51.984;5.928;2023-02-05T10:41:50;9.10;99.90
39023;DHT22;25908;51.984;5.928;2023-02-05T10:44:39;9.20;99.90
39023;DHT22;25908;51.984;5.928;2023-02-05T10:47:11;9.20;99.90
39023;DHT22;25908;51.984;5.928;2023-02-05T10:49:52;9.20;99.90
39023;DHT22;25908;51.984;5.928;2023-02-05T10:52:19;9.20;99.90
39023;DHT22;25908;51.984;5.928;2023-02-05T10:54:45;9.10;99.90
39023;DHT22;25908;51.984;5.928;2023-02-05T10:57:14;9.10;99.90
39023;DHT22;25908;51.984;5.928;2023-02-05T10:59:58;9.20;99.90
39023;DHT22;25908;51.984;5.928;2023-02-05T11:02:32;9.20;99.90
39023;DHT22;25908;51.984;5.928;2023-02-05T11:05:01;9.20;99.90
39023;DHT22;25908;51.984;5.928;2023-02-05T11:07:42;9.10;99.90
39023;DHT22;25908;51.984;5.928;2023-02-05T11:12:43;9.10;99.90
39023;DHT22;25908;51.984;5.928;2023-02-05T11:15:22;9.10;99.90
39023;DHT22;25908;51.984;5.928;2023-02-05T11:18:04;9.20;99.90
39023;DHT22;25908;51.984;5.928;2023-02-05T11:20:36;9.30;99.90
39023;DHT22;25908;51.984;5.928;2023-02-05T11:23:06;9.40;99.90
39023;DHT22;25908;51.984;5.928;2023-02-05T11:25:32;9.50;99.90
39023;DHT22;25908;51.984;5.928;2023-02-05T11:27:59;9.60;99.90
39023;DHT22;25908;51.984;5.928;2023-02-05T11:30:36;9.60;99.90
39023;DHT22;25908;51.984;5.928;2023-02-05T11:33:28;9.70;99.90
39023;DHT22;25908;51.984;5.928;2023-02-05T11:36:06;9.70;99.90
39023;DHT22;25908;51.984;5.928;2023-02-05T11:41:01;9.80;99.90
39023;DHT22;25908;51.984;5.928;2023-02-05T11:43:49;9.80;99.90
39023;DHT22;25908;51.984;5.928;2023-02-05T11:46:17;9.80;99.90
39023;DHT22;25908;51.984;5.928;2023-02-05T11:49:01;9.80;99.90
39023;DHT22;25908;51.984;5.928;2023-02-05T11:51:43;9.80;99.90
39023;DHT22;25908;51.984;5.928;2023-02-05T11:54:30;9.80;99.90
39023;DHT22;25908;51.984;5.928;2023-02-05T11:59:30;9.70;99.90
39023;DHT22;25908;51.984;5.928;2023-02-05T12:02:32;9.70;99.90
39023;DHT22;25908;51.984;5.928;2023-02-05T12:05:17;9.70;99.90
39023;DHT22;25908;51.984;5.928;2023-02-05T12:10:16;9.70;99.90
39023;DHT22;25908;51.984;5.928;2023-02-05T12:15:26;9.70;99.90
39023;DHT22;25908;51.984;5.928;2023-02-05T12:26:46;9.60;99.90
39023;DHT22;25908;51.984;5.928;2023-02-05T12:32:39;9.60;99.90
39023;DHT22;25908;51.984;5.928;2023-02-05T12:40:31;9.80;99.90
39023;DHT22;25908;51.984;5.928;2023-02-05T12:43:40;9.90;99.90
39023;DHT22;25908;51.984;5.928;2023-02-05T12:54:39;10.00;99.90
39023;DHT22;25908;51.984;5.928;2023-02-05T12:57:11;10.00;99.90
39023;DHT22;25908;51.984;5.928;2023-02-05T12:59:39;9.90;99.90
39023;DHT22;25908;51.984;5.928;2023-02-05T13:08:14;9.90;99.90
39023;DHT22;25908;51.984;5.928;2023-02-05T13:10:53;9.90;99.90
39023;DHT22;25908;51.984;5.928;2023-02-05T13:13:34;9.90;99.90
39023;DHT22;25908;51.984;5.928;2023-02-05T13:16:10;9.90;99.90
39023;DHT22;25908;51.984;5.928;2023-02-05T13:18:46;9.90;99.90
39023;DHT22;25908;51.984;5.928;2023-02-05T13:21:17;9.80;99.90
39023;DHT22;25908;51.984;5.928;2023-02-05T13:24:21;9.80;99.90
39023;DHT22;25908;51.984;5.928;2023-02-05T13:27:30;9.90;99.90
39023;DHT22;25908;51.984;5.928;2023-02-05T13:30:33;9.90;99.90
39023;DHT22;25908;51.984;5.928;2023-02-05T13:33:04;9.90;99.90
39023;DHT22;25908;51.984;5.928;2023-02-05T13:35:33;9.90;99.70
39023;DHT22;25908;51.984;5.928;2023-02-05T13:38:30;9.90;99.50
39023;DHT22;25908;51.984;5.928;2023-02-05T13:46:31;9.90;99.40
39023;DHT22;25908;51.984;5.928;2023-02-05T13:49:03;9.90;98.60
39023;DHT22;25908;51.984;5.928;2023-02-05T13:59:51;9.90;97.40
39023;DHT22;25908;51.984;5.928;2023-02-05T14:02:48;9.80;97.40
39023;DHT22;25908;51.984;5.928;2023-02-05T14:05:26;9.90;97.50
39023;DHT22;25908;51.984;5.928;2023-02-05T14:07:52;9.90;97.90
39023;DHT22;25908;51.984;5.928;2023-02-05T14:10:27;9.90;98.10
39023;DHT22;25908;51.984;5.928;2023-02-05T14:13:17;9.90;98.30
39023;DHT22;25908;51.984;5.928;2023-02-05T14:15:45;10.00;97.70
39023;DHT22;25908;51.984;5.928;2023-02-05T14:24:22;10.00;97.30
39023;DHT22;25908;51.984;5.928;2023-02-05T14:26:51;10.00;96.90
39023;DHT22;25908;51.984;5.928;2023-02-05T14:29:46;9.90;97.00
39023;DHT22;25908;51.984;5.928;2023-02-05T14:37:49;9.90;97.50
39023;DHT22;25908;51.984;5.928;2023-02-05T14:43:20;9.90;97.30
39023;DHT22;25908;51.984;5.928;2023-02-05T14:45:46;9.90;97.60
39023;DHT22;25908;51.984;5.928;2023-02-05T14:48:27;9.90;97.90
39023;DHT22;25908;51.984;5.928;2023-02-05T14:51:19;10.00;97.80
39023;DHT22;25908;51.984;5.928;2023-02-05T14:53:53;10.00;98.00
39023;DHT22;25908;51.984;5.928;2023-02-05T14:56:29;10.00;97.30
39023;DHT22;25908;51.984;5.928;2023-02-05T14:59:28;10.00;97.10
39023;DHT22;25908;51.984;5.928;2023-02-05T15:01:57;9.90;96.70
39023;DHT22;25908;51.984;5.928;2023-02-05T15:06:53;9.90;97.50
39023;DHT22;25908;51.984;5.928;2023-02-05T15:09:23;9.90;97.50
39023;DHT22;25908;51.984;5.928;2023-02-05T15:12:29;9.90;97.80
39023;DHT22;25908;51.984;5.928;2023-02-05T15:14:57;9.90;97.70
39023;DHT22;25908;51.984;5.928;2023-02-05T15:20:02;9.90;97.80
39023;DHT22;25908;51.984;5.928;2023-02-05T15:22:36;9.90;98.10
39023;DHT22;25908;51.984;5.928;2023-02-05T15:25:08;9.90;98.20
39023;DHT22;25908;51.984;5.928;2023-02-05T15:27:41;9.90;98.60
39023;DHT22;25908;51.984;5.928;2023-02-05T15:30:12;9.90;98.30
39023;DHT22;25908;51.984;5.928;2023-02-05T15:32:49;9.90;98.10
39023;DHT22;25908;51.984;5.928;2023-02-05T15:35:20;9.90;98.40
39023;DHT22;25908;51.984;5.928;2023-02-05T15:37:59;9.90;98.30
39023;DHT22;25908;51.984;5.928;2023-02-05T15:40:29;9.80;98.00
39023;DHT22;25908;51.984;5.928;2023-02-05T15:43:00;9.90;98.20
39023;DHT22;25908;51.984;5.928;2023-02-05T15:45:31;9.80;98.10
39023;DHT22;25908;51.984;5.928;2023-02-05T15:50:44;9.70;98.20
39023;DHT22;25908;51.984;5.928;2023-02-05T15:55:50;9.70;98.70
39023;DHT22;25908;51.984;5.928;2023-02-05T15:58:19;9.70;98.60
39023;DHT22;25908;51.984;5.928;2023-02-05T16:00:47;9.70;98.40
39023;DHT22;25908;51.984;5.928;2023-02-05T16:03:43;9.70;98.40
39023;DHT22;25908;51.984;5.928;2023-02-05T16:06:17;9.60;97.80
39023;DHT22;25908;51.984;5.928;2023-02-05T16:08:47;9.60;98.10
39023;DHT22;25908;51.984;5.928;2023-02-05T16:11:31;9.60;98.60
39023;DHT22;25908;51.984;5.928;2023-02-05T16:16:39;9.60;98.70
39023;DHT22;25908;51.984;5.928;2023-02-05T16:19:13;9.50;98.20
39023;DHT22;25908;51.984;5.928;2023-02-05T16:21:45;9.50;98.00
39023;DHT22;25908;51.984;5.928;2023-02-05T16:24:32;9.50;97.20
39023;DHT22;25908;51.984;5.928;2023-02-05T16:27:29;9.40;96.70
39023;DHT22;25908;51.984;5.928;2023-02-05T16:29:58;9.30;96.80
39023;DHT22;25908;51.984;5.928;2023-02-05T16:32:32;9.30;97.20
39023;DHT22;25908;51.984;5.928;2023-02-05T16:35:00;9.30;97.00
39023;DHT22;25908;51.984;5.928;2023-02-05T16:37:29;9.30;97.40
39023;DHT22;25908;51.984;5.928;2023-02-05T16:39:58;9.30;97.60
39023;DHT22;25908;51.984;5.928;2023-02-05T16:50:44;9.20;98.60
39023;DHT22;25908;51.984;5.928;2023-02-05T16:53:15;9.20;98.40
39023;DHT22;25908;51.984;5.928;2023-02-05T16:55:42;9.10;98.50
39023;DHT22;25908;51.984;5.928;2023-02-05T16:58:14;9.10;98.30
39023;DHT22;25908;51.984;5.928;2023-02-05T17:00:40;9.00;98.30
39023;DHT22;25908;51.984;5.928;2023-02-05T17:03:17;9.00;98.50
39023;DHT22;25908;51.984;5.928;2023-02-05T17:05:43;9.00;98.30
39023;DHT22;25908;51.984;5.928;2023-02-05T17:08:09;9.00;98.40
39023;DHT22;25908;51.984;5.928;2023-02-05T17:10:52;9.00;98.60
39023;DHT22;25908;51.984;5.928;2023-02-05T17:13:38;9.00;98.70
39023;DHT22;25908;51.984;5.928;2023-02-05T17:18:58;9.00;98.90
39023;DHT22;25908;51.984;5.928;2023-02-05T17:21:27;9.00;99.20
39023;DHT22;25908;51.984;5.928;2023-02-05T17:23:53;8.90;99.30
39023;DHT22;25908;51.984;5.928;2023-02-05T17:26:22;8.90;99.40
39023;DHT22;25908;51.984;5.928;2023-02-05T17:28:55;8.90;99.60
39023;DHT22;25908;51.984;5.928;2023-02-05T17:31:22;8.90;99.70
39023;DHT22;25908;51.984;5.928;2023-02-05T17:33:52;8.90;99.70
39023;DHT22;25908;51.984;5.928;2023-02-05T17:36:19;8.80;99.80
39023;DHT22;25908;51.984;5.928;2023-02-05T17:38:44;8.80;99.80
39023;DHT22;25908;51.984;5.928;2023-02-05T17:41:22;8.80;99.90
39023;DHT22;25908;51.984;5.928;2023-02-05T17:44:12;8.70;99.90
39023;DHT22;25908;51.984;5.928;2023-02-05T17:46:38;8.70;99.90
39023;DHT22;25908;51.984;5.928;2023-02-05T17:49:04;8.70;99.90
39023;DHT22;25908;51.984;5.928;2023-02-05T17:51:29;8.60;99.90
39023;DHT22;25908;51.984;5.928;2023-02-05T17:53:55;8.60;99.90
39023;DHT22;25908;51.984;5.928;2023-02-05T17:56:21;8.60;99.90
39023;DHT22;25908;51.984;5.928;2023-02-05T17:58:49;8.50;99.90
39023;DHT22;25908;51.984;5.928;2023-02-05T18:01:17;8.50;99.90
39023;DHT22;25908;51.984;5.928;2023-02-05T18:03:43;8.50;99.90
39023;DHT22;25908;51.984;5.928;2023-02-05T18:06:11;8.50;99.90
39023;DHT22;25908;51.984;5.928;2023-02-05T18:08:37;8.40;99.90
39023;DHT22;25908;51.984;5.928;2023-02-05T18:11:03;8.40;99.90
39023;DHT22;25908;51.984;5.928;2023-02-05T18:13:29;8.40;99.90
39023;DHT22;25908;51.984;5.928;2023-02-05T18:15:54;8.40;99.90
39023;DHT22;25908;51.984;5.928;2023-02-05T18:18:27;8.40;99.90
39023;DHT22;25908;51.984;5.928;2023-02-05T18:20:52;8.40;99.90
39023;DHT22;25908;51.984;5.928;2023-02-05T18:23:18;8.40;99.90
39023;DHT22;25908;51.984;5.928;2023-02-05T18:25:43;8.40;99.90
39023;DHT22;25908;51.984;5.928;2023-02-05T18:28:09;8.30;99.90